Current | Forecast
Updated: 6:00 PM JST on April 26, 2018
Observed at Obihiro, Japan
Temperature 57°F
Humidity 44%
Dew Point 36°F
Wind North at 12 mph
Pressure 29.50 in (Steady)
Conditions Partly Cloudy
Visibility 6.2 miles
UV 0 out of 16
Clouds (FEW) : 6000 ft
Yesterday's Maximum 45°F
Yesterday's Minimum 39°F approx.
Yesterday's Heating Degree Days 23 approx.
Sunrise4:29 AM JST
Sunset6:20 PM JST
Moon Rise2:06 PM JST
Moon Set2:44 AM JST
Moon PhaseMoon Phase
Waxing Gibbous
Raw METARMETAR RJCB 260900Z 35010KT 9999 FEW060 SCT/// 14/02 Q0999


Monday
. High: 69° F.
Tuesday
. High: 62° F.
Wednesday
. High: 62° F.
Thursday
. High: 66° F.
Friday
. High: 62° F.
Saturday
. High: 55° F.
Sunday
. High: 53° F.
Monday
. High: 53° F.

Units: English | Metric

Find the Weather for any City, State or Zipcode, or Country:

U.S. State List | Severe Weather | Tropical Storms | Ski Conditions
United States | Canada | Central America | South America | Asia | Europe | Australia | Africa | Islands

Weather Underground

© Copyright 2018
The Weather Company, LLC